createdAt,value
2019-03-18T00:01:19.654Z,99.90
2019-03-18T00:03:57.129Z,99.90
2019-03-18T00:06:34.636Z,99.90
2019-03-18T00:09:12.129Z,99.90
2019-03-18T00:11:49.655Z,99.90
2019-03-18T00:14:27.174Z,99.90
2019-03-18T00:17:04.680Z,99.90
2019-03-18T00:19:43.086Z,99.90
2019-03-18T00:22:19.710Z,99.90
2019-03-18T00:24:57.231Z,99.90
2019-03-18T00:27:34.747Z,99.90
2019-03-18T00:30:14.971Z,99.90
2019-03-18T00:32:52.448Z,99.90
2019-03-18T00:35:29.960Z,99.90
2019-03-18T00:38:07.452Z,99.90
2019-03-18T00:40:44.981Z,99.90
2019-03-18T00:43:22.467Z,99.90
2019-03-18T00:45:59.989Z,99.90
2019-03-18T00:48:37.559Z,99.90
2019-03-18T00:51:15.017Z,99.90
2019-03-18T00:53:52.512Z,99.90
2019-03-18T00:56:30.031Z,99.90
2019-03-18T00:59:07.550Z,99.90
2019-03-18T01:01:45.086Z,99.90
2019-03-18T01:04:22.586Z,99.90
2019-03-18T01:07:00.086Z,99.90
2019-03-18T01:09:37.605Z,99.90
2019-03-18T01:12:15.115Z,99.90
2019-03-18T01:14:52.630Z,99.90
2019-03-18T01:17:30.136Z,99.90
2019-03-18T01:20:07.864Z,99.90
2019-03-18T01:22:45.350Z,99.90
2019-03-18T01:25:22.848Z,99.90
2019-03-18T01:28:00.338Z,99.90
2019-03-18T01:30:37.859Z,99.50
2019-03-18T01:33:15.330Z,99.20
2019-03-18T01:35:52.842Z,99.40
2019-03-18T01:38:30.327Z,99.40
2019-03-18T01:41:07.826Z,99.30
2019-03-18T01:43:45.367Z,99.00
2019-03-18T01:46:22.871Z,99.10
2019-03-18T01:49:00.350Z,99.20
2019-03-18T01:51:37.894Z,99.40
2019-03-18T01:54:15.374Z,99.70
2019-03-18T01:56:52.879Z,99.90
2019-03-18T01:59:30.416Z,99.90
2019-03-18T02:02:07.906Z,99.90
2019-03-18T02:04:45.416Z,99.90
2019-03-18T02:07:22.939Z,99.90
2019-03-18T02:10:00.416Z,99.90
2019-03-18T02:12:37.942Z,99.90
2019-03-18T02:15:15.479Z,99.90
2019-03-18T02:17:52.966Z,99.90
2019-03-18T02:20:30.471Z,99.90
2019-03-18T02:23:07.960Z,99.90
2019-03-18T02:25:45.470Z,99.90
2019-03-18T02:28:22.945Z,99.90
2019-03-18T02:31:00.492Z,99.90
2019-03-18T02:33:37.970Z,99.90
2019-03-18T02:36:15.492Z,99.90
2019-03-18T02:38:53.070Z,99.90
2019-03-18T02:41:30.523Z,99.90
2019-03-18T02:44:08.001Z,99.90
2019-03-18T02:46:45.491Z,99.90
2019-03-18T02:49:22.995Z,99.90
2019-03-18T02:52:00.527Z,99.90
2019-03-18T02:54:38.017Z,99.90
2019-03-18T02:57:15.516Z,99.90
2019-03-18T02:59:53.009Z,99.90
2019-03-18T03:02:30.516Z,99.90
2019-03-18T03:05:09.003Z,99.90
2019-03-18T03:07:46.527Z,99.90
2019-03-18T03:10:23.975Z,99.90
2019-03-18T03:13:01.493Z,99.90
2019-03-18T03:15:38.976Z,99.90
2019-03-18T03:18:16.487Z,99.90
2019-03-18T03:20:54.023Z,99.90
2019-03-18T03:23:31.490Z,99.90
2019-03-18T03:26:09.346Z,99.90
2019-03-18T03:28:46.846Z,99.90
2019-03-18T03:31:24.348Z,99.90
2019-03-18T03:34:01.859Z,99.90
2019-03-18T03:36:39.341Z,99.90
2019-03-18T03:39:16.821Z,99.90
2019-03-18T03:41:54.354Z,99.90
2019-03-18T03:44:31.810Z,99.90
2019-03-18T03:47:09.320Z,99.90
2019-03-18T03:49:46.814Z,99.90
2019-03-18T03:52:24.348Z,99.90
2019-03-18T03:55:01.838Z,99.90
2019-03-18T03:57:40.191Z,99.90
2019-03-18T04:00:17.711Z,99.90
2019-03-18T04:02:55.239Z,99.90
2019-03-18T04:05:32.755Z,99.90
2019-03-18T04:08:10.258Z,99.80
2019-03-18T04:10:47.742Z,99.60
2019-03-18T04:13:25.236Z,99.20
2019-03-18T04:16:02.709Z,98.80
2019-03-18T04:18:40.233Z,98.60
2019-03-18T04:21:17.734Z,98.90
2019-03-18T04:23:55.226Z,99.10
2019-03-18T04:26:32.699Z,99.40
2019-03-18T04:29:10.329Z,99.90
2019-03-18T04:31:47.732Z,99.90
2019-03-18T04:34:25.228Z,99.90
2019-03-18T04:37:02.752Z,99.90
2019-03-18T04:39:40.277Z,99.90
2019-03-18T04:42:17.792Z,99.90
2019-03-18T04:44:55.300Z,99.90
2019-03-18T04:47:32.818Z,99.90
2019-03-18T04:50:10.587Z,99.90
2019-03-18T04:52:48.148Z,99.90
2019-03-18T04:55:25.622Z,99.90
2019-03-18T04:58:03.204Z,99.90
2019-03-18T05:00:40.693Z,99.90
2019-03-18T05:03:18.220Z,99.90
2019-03-18T05:05:55.696Z,99.90
2019-03-18T05:08:33.193Z,99.90
2019-03-18T05:11:10.679Z,99.90
2019-03-18T05:13:49.258Z,99.90
2019-03-18T05:16:26.674Z,99.80
2019-03-18T05:19:04.203Z,99.70
2019-03-18T05:21:41.680Z,99.50
2019-03-18T05:24:19.187Z,99.60
2019-03-18T05:26:56.674Z,99.50
2019-03-18T05:29:34.224Z,99.20
2019-03-18T05:32:11.759Z,99.10
2019-03-18T05:34:49.599Z,98.90
2019-03-18T05:37:27.140Z,98.70
2019-03-18T05:40:04.632Z,98.70
2019-03-18T05:42:42.159Z,98.60
2019-03-18T05:45:19.639Z,98.50
2019-03-18T05:47:57.172Z,98.40
2019-03-18T05:50:34.701Z,98.00
2019-03-18T05:53:12.226Z,97.60
2019-03-18T05:55:53.027Z,97.70
2019-03-18T05:58:30.535Z,97.60
2019-03-18T06:01:08.044Z,97.30
2019-03-18T06:03:45.916Z,96.70
2019-03-18T06:06:23.435Z,96.40
2019-03-18T06:09:01.007Z,96.40
2019-03-18T06:11:38.598Z,96.10
2019-03-18T06:14:16.100Z,95.70
2019-03-18T06:16:53.602Z,95.10
2019-03-18T06:19:31.116Z,94.80
2019-03-18T06:22:08.651Z,93.70
2019-03-18T06:24:46.117Z,92.90
2019-03-18T06:27:23.604Z,92.60
2019-03-18T06:30:01.123Z,92.10
2019-03-18T06:32:38.660Z,91.60
2019-03-18T06:35:16.128Z,92.70
2019-03-18T06:37:53.646Z,91.20
2019-03-18T06:40:31.131Z,91.10
2019-03-18T06:43:08.649Z,90.40
2019-03-18T06:45:46.145Z,90.70
2019-03-18T06:48:23.688Z,90.00
2019-03-18T06:51:01.164Z,90.10
2019-03-18T06:53:40.177Z,89.80
2019-03-18T06:56:16.214Z,89.70
2019-03-18T06:58:53.721Z,89.00
2019-03-18T07:01:31.189Z,87.30
2019-03-18T07:04:08.715Z,87.40
2019-03-18T07:06:46.338Z,85.70
2019-03-18T07:09:23.830Z,86.60
2019-03-18T07:12:01.330Z,85.30
2019-03-18T07:14:38.833Z,82.80
2019-03-18T07:17:16.343Z,82.30
2019-03-18T07:19:53.891Z,83.30
2019-03-18T07:22:31.399Z,82.50
2019-03-18T07:25:08.995Z,83.80
2019-03-18T07:27:46.503Z,83.20
2019-03-18T07:30:24.011Z,82.50
2019-03-18T07:33:01.531Z,84.40
2019-03-18T07:35:39.022Z,84.50
2019-03-18T07:38:16.574Z,84.60
2019-03-18T07:40:54.069Z,84.60
2019-03-18T07:43:31.591Z,85.00
2019-03-18T07:46:09.075Z,84.90
2019-03-18T07:48:46.585Z,84.10
2019-03-18T07:51:24.105Z,84.90
2019-03-18T07:54:01.649Z,84.20
2019-03-18T07:56:39.132Z,84.20
2019-03-18T07:59:16.639Z,81.00
2019-03-18T08:01:54.111Z,81.60
2019-03-18T08:04:37.463Z,80.40
2019-03-18T08:07:09.119Z,81.40
2019-03-18T08:09:46.628Z,82.60
2019-03-18T08:12:24.154Z,80.20
2019-03-18T08:15:01.681Z,81.50
2019-03-18T08:17:39.185Z,81.10
2019-03-18T08:20:16.687Z,81.20
2019-03-18T08:22:54.175Z,81.00
2019-03-18T08:25:31.692Z,79.80
2019-03-18T08:28:09.161Z,78.90
2019-03-18T08:30:46.678Z,79.30
2019-03-18T08:33:24.231Z,79.10
2019-03-18T08:36:01.704Z,80.20
2019-03-18T08:38:39.232Z,81.90
2019-03-18T08:41:16.719Z,81.60
2019-03-18T08:43:54.247Z,82.80
2019-03-18T08:46:31.766Z,80.30
2019-03-18T08:49:09.293Z,79.00
2019-03-18T08:51:46.807Z,80.00
2019-03-18T08:54:24.330Z,78.20
2019-03-18T08:57:01.817Z,79.40
2019-03-18T08:59:39.325Z,81.10
2019-03-18T09:02:16.812Z,84.10
2019-03-18T09:04:54.333Z,84.60
2019-03-18T09:07:31.820Z,84.10
2019-03-18T09:10:09.848Z,85.10
2019-03-18T09:12:47.348Z,85.00
2019-03-18T09:15:24.849Z,88.50
2019-03-18T09:18:02.359Z,90.00
2019-03-18T09:20:39.868Z,89.60
2019-03-18T09:23:17.369Z,88.30
2019-03-18T09:25:54.882Z,87.20
2019-03-18T09:28:32.375Z,81.30
2019-03-18T09:31:09.876Z,78.60
2019-03-18T09:33:47.352Z,77.40
2019-03-18T09:36:24.854Z,78.80
2019-03-18T09:39:02.376Z,78.80
2019-03-18T09:41:39.891Z,76.90
2019-03-18T09:44:17.438Z,79.90
2019-03-18T09:46:54.918Z,78.60
2019-03-18T09:49:32.424Z,78.30
2019-03-18T09:52:09.918Z,77.10
2019-03-18T09:54:47.417Z,77.70
2019-03-18T09:57:26.442Z,76.00
2019-03-18T10:00:02.419Z,76.50
2019-03-18T10:02:39.897Z,76.40
2019-03-18T10:05:17.401Z,78.20
2019-03-18T10:07:54.901Z,75.30
2019-03-18T10:10:32.431Z,75.80
2019-03-18T10:13:09.936Z,73.70
2019-03-18T10:15:47.459Z,75.00
2019-03-18T10:18:24.966Z,72.70
2019-03-18T10:21:02.480Z,72.90
2019-03-18T10:23:40.006Z,73.40
2019-03-18T10:26:17.576Z,74.60
2019-03-18T10:28:55.015Z,74.50
2019-03-18T10:31:32.519Z,73.80
2019-03-18T10:34:10.015Z,74.00
2019-03-18T10:36:47.557Z,73.30
2019-03-18T10:39:25.040Z,72.70
2019-03-18T10:42:02.553Z,73.90
2019-03-18T10:44:40.105Z,71.90
2019-03-18T10:47:17.594Z,68.80
2019-03-18T10:49:55.110Z,69.90
2019-03-18T10:52:32.626Z,69.90
2019-03-18T10:55:10.920Z,67.90
2019-03-18T10:57:48.395Z,68.70
2019-03-18T11:00:25.912Z,67.00
2019-03-18T11:03:03.418Z,69.90
2019-03-18T11:05:40.927Z,69.30
2019-03-18T11:08:18.420Z,68.40
2019-03-18T11:10:55.978Z,67.50
2019-03-18T11:13:33.480Z,66.50
2019-03-18T11:16:11.003Z,68.70
2019-03-18T11:18:48.517Z,68.20
2019-03-18T11:21:26.078Z,64.00
2019-03-18T11:24:03.597Z,62.00
2019-03-18T11:26:41.103Z,61.00
2019-03-18T11:29:18.593Z,63.30
2019-03-18T11:31:56.114Z,62.20
2019-03-18T11:34:33.596Z,65.20
2019-03-18T11:37:11.105Z,63.80
2019-03-18T11:39:48.610Z,64.60
2019-03-18T11:42:26.123Z,65.10
2019-03-18T11:45:03.657Z,65.70
2019-03-18T11:47:41.144Z,63.60
2019-03-18T11:50:18.682Z,62.50
2019-03-18T11:52:56.204Z,56.80
2019-03-18T11:55:33.696Z,51.70
2019-03-18T11:58:11.166Z,49.20
2019-03-18T12:00:48.673Z,46.70
2019-03-18T12:03:26.159Z,47.40
2019-03-18T12:06:03.663Z,47.30
2019-03-18T12:08:41.206Z,51.50
2019-03-18T12:11:18.714Z,55.50
2019-03-18T12:13:56.191Z,54.90
2019-03-18T12:16:33.704Z,53.30
2019-03-18T12:19:11.170Z,53.50
2019-03-18T12:21:48.815Z,51.40
2019-03-18T12:24:26.313Z,53.80
2019-03-18T12:27:03.829Z,55.70
2019-03-18T12:29:41.334Z,57.20
2019-03-18T12:32:18.834Z,60.20
2019-03-18T12:34:56.318Z,58.60
2019-03-18T12:37:33.852Z,60.50
2019-03-18T12:40:12.860Z,61.50
2019-03-18T12:42:50.368Z,60.50
2019-03-18T12:45:27.854Z,61.40
2019-03-18T12:48:05.356Z,60.30
2019-03-18T12:50:55.069Z,53.40
2019-03-18T12:53:20.466Z,50.20
2019-03-18T12:55:58.030Z,45.50
2019-03-18T12:58:35.516Z,42.40
2019-03-18T13:01:13.055Z,42.30
2019-03-18T13:03:50.525Z,39.60
2019-03-18T13:06:28.043Z,39.40
2019-03-18T13:09:05.910Z,39.70
2019-03-18T13:11:43.419Z,37.70
2019-03-18T13:14:20.910Z,37.20
2019-03-18T13:16:58.422Z,36.10
2019-03-18T13:19:35.913Z,37.40
2019-03-18T13:22:13.415Z,41.50
2019-03-18T13:24:50.921Z,43.10
2019-03-18T13:27:28.444Z,45.10
2019-03-18T13:30:06.602Z,46.50
2019-03-18T13:32:44.100Z,45.50
2019-03-18T13:35:21.583Z,45.60
2019-03-18T13:37:59.100Z,43.80
2019-03-18T13:40:36.574Z,44.20
2019-03-18T13:43:14.180Z,46.00
2019-03-18T13:45:55.663Z,46.90
2019-03-18T13:48:29.127Z,48.70
2019-03-18T13:51:06.632Z,50.20
2019-03-18T13:53:44.183Z,52.20
2019-03-18T13:56:21.711Z,49.40
2019-03-18T13:58:59.191Z,47.70
2019-03-18T14:01:36.689Z,47.70
2019-03-18T14:04:14.198Z,50.40
2019-03-18T14:06:51.690Z,50.00
2019-03-18T14:09:29.238Z,46.00
2019-03-18T14:12:06.752Z,41.70
2019-03-18T14:14:44.232Z,38.80
2019-03-18T14:17:21.743Z,37.10
2019-03-18T14:20:00.618Z,37.70
2019-03-18T14:22:36.744Z,38.90
2019-03-18T14:25:14.243Z,43.30
2019-03-18T14:27:51.746Z,50.20
2019-03-18T14:30:29.248Z,58.10
2019-03-18T14:33:06.774Z,70.40
2019-03-18T14:35:44.285Z,77.80
2019-03-18T14:38:21.809Z,82.10
2019-03-18T14:40:59.304Z,84.10
2019-03-18T14:43:36.807Z,75.60
2019-03-18T14:46:14.338Z,68.50
2019-03-18T14:48:51.858Z,64.30
2019-03-18T14:51:29.406Z,57.10
2019-03-18T14:54:06.891Z,54.20
2019-03-18T14:56:44.395Z,51.90
2019-03-18T14:59:21.929Z,50.50
2019-03-18T15:01:59.443Z,49.80
2019-03-18T15:04:36.935Z,48.80
2019-03-18T15:07:14.441Z,46.60
2019-03-18T15:09:51.949Z,48.40
2019-03-18T15:12:29.474Z,50.20
2019-03-18T15:15:07.347Z,47.90
2019-03-18T15:17:44.867Z,44.40
2019-03-18T15:20:22.463Z,40.10
2019-03-18T15:22:59.975Z,39.10
2019-03-18T15:25:37.495Z,37.70
2019-03-18T15:28:15.023Z,38.90
2019-03-18T15:30:52.552Z,39.40
2019-03-18T15:33:30.070Z,40.60
2019-03-18T15:36:07.593Z,41.20
2019-03-18T15:38:45.090Z,40.60
2019-03-18T15:41:22.589Z,40.30
2019-03-18T15:44:00.095Z,41.20
2019-03-18T15:46:37.558Z,43.80
2019-03-18T15:49:15.091Z,46.50
2019-03-18T15:51:52.642Z,50.00
2019-03-18T15:54:30.137Z,50.90
2019-03-18T15:57:07.618Z,53.10
2019-03-18T15:59:45.246Z,52.70
2019-03-18T16:02:22.673Z,50.20
2019-03-18T16:05:00.358Z,48.40
2019-03-18T16:07:37.706Z,48.40
2019-03-18T16:10:15.898Z,49.80
2019-03-18T16:12:53.412Z,51.40
2019-03-18T16:15:30.908Z,52.80
2019-03-18T16:18:08.411Z,49.40
2019-03-18T16:20:45.919Z,50.20
2019-03-18T16:23:23.418Z,51.40
2019-03-18T16:26:00.935Z,53.60
2019-03-18T16:28:38.459Z,55.60
2019-03-18T16:31:15.936Z,54.80
2019-03-18T16:33:53.447Z,54.50
2019-03-18T16:36:30.928Z,55.40
2019-03-18T16:39:09.310Z,55.60
2019-03-18T16:41:46.804Z,57.00
2019-03-18T16:44:24.325Z,58.80
2019-03-18T16:47:01.816Z,60.20
2019-03-18T16:49:39.323Z,59.80
2019-03-18T16:52:16.827Z,59.40
2019-03-18T16:54:54.322Z,58.30
2019-03-18T16:57:32.103Z,57.70
2019-03-18T17:00:11.695Z,57.10
2019-03-18T17:02:49.300Z,56.60
2019-03-18T17:05:26.854Z,56.70
2019-03-18T17:08:04.378Z,58.30
2019-03-18T17:10:41.887Z,60.20
2019-03-18T17:13:19.433Z,60.90
2019-03-18T17:15:57.099Z,61.90
2019-03-18T17:18:34.654Z,63.90
2019-03-18T17:21:12.142Z,64.10
2019-03-18T17:23:49.692Z,65.30
2019-03-18T17:26:27.185Z,65.60
2019-03-18T17:29:04.717Z,66.30
2019-03-18T17:31:42.220Z,67.00
2019-03-18T17:34:19.738Z,67.30
2019-03-18T17:36:57.236Z,67.80
2019-03-18T17:39:34.746Z,68.30
2019-03-18T17:42:12.211Z,67.90
2019-03-18T17:44:49.715Z,68.80
2019-03-18T17:47:27.190Z,68.60
2019-03-18T17:50:04.710Z,68.70
2019-03-18T17:52:42.217Z,69.00
2019-03-18T17:55:19.724Z,69.70
2019-03-18T17:57:57.243Z,69.30
2019-03-18T18:00:37.692Z,69.20
2019-03-18T18:03:15.212Z,70.00
2019-03-18T18:05:52.711Z,70.50
2019-03-18T18:08:30.223Z,71.10
2019-03-18T18:11:07.724Z,71.30
2019-03-18T18:13:45.248Z,71.80
2019-03-18T18:16:22.758Z,72.10
2019-03-18T18:19:00.300Z,72.80
2019-03-18T18:21:37.808Z,72.70
2019-03-18T18:24:15.341Z,72.60
2019-03-18T18:26:52.843Z,72.70
2019-03-18T18:29:30.372Z,72.40
2019-03-18T18:32:07.884Z,71.80
2019-03-18T18:34:45.359Z,71.30
2019-03-18T18:37:22.871Z,71.30
2019-03-18T18:40:00.396Z,71.30
2019-03-18T18:42:37.924Z,71.50
2019-03-18T18:45:15.524Z,71.20
2019-03-18T18:47:53.029Z,71.80
2019-03-18T18:51:07.515Z,71.50
2019-03-18T18:53:44.968Z,72.30
2019-03-18T18:56:22.463Z,72.50
2019-03-18T18:59:00.120Z,72.50
2019-03-18T19:01:37.713Z,72.20
2019-03-18T19:04:15.239Z,72.60
2019-03-18T19:06:52.759Z,72.60
2019-03-18T19:09:30.278Z,72.70
2019-03-18T19:12:07.771Z,72.90
2019-03-18T19:14:45.324Z,73.50
2019-03-18T19:17:24.097Z,74.00
2019-03-18T19:20:00.524Z,74.50
2019-03-18T19:22:38.074Z,74.80
2019-03-18T19:25:16.140Z,74.90
2019-03-18T19:27:53.682Z,75.30
2019-03-18T19:30:31.195Z,75.40
2019-03-18T19:33:08.712Z,75.50
2019-03-18T19:35:46.207Z,75.70
2019-03-18T19:38:23.761Z,75.50
2019-03-18T19:41:01.272Z,75.80
2019-03-18T19:43:38.774Z,75.50
2019-03-18T19:46:16.298Z,75.40
2019-03-18T19:48:53.845Z,75.40
2019-03-18T19:51:31.397Z,75.50
2019-03-18T19:54:08.932Z,75.90
2019-03-18T19:56:46.443Z,75.80
2019-03-18T19:59:23.998Z,76.20
2019-03-18T20:02:01.498Z,76.80
2019-03-18T20:04:39.031Z,77.10
2019-03-18T20:07:16.739Z,77.90
2019-03-18T20:09:54.274Z,78.70
2019-03-18T20:12:31.779Z,79.70
2019-03-18T20:15:10.662Z,80.80
2019-03-18T20:17:48.146Z,81.80
2019-03-18T20:20:25.681Z,82.80
2019-03-18T20:23:03.185Z,83.70
2019-03-18T20:25:40.682Z,83.90
2019-03-18T20:28:18.230Z,84.30
2019-03-18T20:30:55.800Z,84.60
2019-03-18T20:33:33.303Z,84.70
2019-03-18T20:36:10.809Z,84.60
2019-03-18T20:38:48.330Z,85.00
2019-03-18T20:41:25.865Z,86.20
2019-03-18T20:44:03.401Z,87.00
2019-03-18T20:46:40.928Z,87.60
2019-03-18T20:49:18.475Z,88.00
2019-03-18T20:51:55.994Z,87.60
2019-03-18T20:54:33.575Z,86.80
2019-03-18T20:57:11.067Z,86.60
2019-03-18T20:59:48.584Z,86.10
2019-03-18T21:02:26.082Z,85.50
2019-03-18T21:05:03.613Z,85.00
2019-03-18T21:07:41.089Z,85.50
2019-03-18T21:10:18.629Z,85.50
2019-03-18T21:12:56.127Z,85.90
2019-03-18T21:15:33.646Z,85.80
2019-03-18T21:18:11.133Z,85.60
2019-03-18T21:20:48.672Z,85.50
2019-03-18T21:23:26.208Z,85.20
2019-03-18T21:26:03.708Z,85.50
2019-03-18T21:28:41.734Z,85.20
2019-03-18T21:31:18.720Z,84.50
2019-03-18T21:33:56.233Z,84.60
2019-03-18T21:36:38.042Z,84.80
2019-03-18T21:39:12.797Z,85.10
2019-03-18T21:41:50.310Z,85.10
2019-03-18T21:44:27.824Z,85.60
2019-03-18T21:47:05.339Z,86.70
2019-03-18T21:49:42.880Z,87.30
2019-03-18T21:52:20.400Z,88.10
2019-03-18T21:54:57.920Z,89.00
2019-03-18T21:57:35.424Z,89.30
2019-03-18T22:00:14.366Z,89.90
2019-03-18T22:02:51.898Z,90.20
2019-03-18T22:05:29.459Z,90.40
2019-03-18T22:08:06.962Z,90.70
2019-03-18T22:10:44.477Z,90.90
2019-03-18T22:13:21.979Z,91.00
2019-03-18T22:15:59.520Z,91.30
2019-03-18T22:18:37.030Z,91.80
2019-03-18T22:21:14.546Z,92.20
2019-03-18T22:23:52.023Z,92.50
2019-03-18T22:26:29.596Z,92.90
2019-03-18T22:29:07.089Z,93.20
2019-03-18T22:31:44.588Z,93.30
2019-03-18T22:34:22.078Z,93.50
2019-03-18T22:36:59.612Z,93.50
2019-03-18T22:39:37.099Z,93.50
2019-03-18T22:42:14.608Z,93.70
2019-03-18T22:44:52.123Z,94.00
2019-03-18T22:47:29.666Z,94.40
2019-03-18T22:50:07.970Z,94.80
2019-03-18T22:52:45.534Z,95.30
2019-03-18T22:55:23.070Z,95.40
2019-03-18T22:58:00.565Z,95.60
2019-03-18T23:00:49.486Z,95.60
2019-03-18T23:03:27.011Z,95.30
2019-03-18T23:06:04.533Z,95.10
2019-03-18T23:08:42.047Z,94.80
2019-03-18T23:11:20.103Z,94.70
2019-03-18T23:13:57.634Z,94.70
2019-03-18T23:16:35.195Z,94.70
2019-03-18T23:19:12.676Z,94.60
2019-03-18T23:21:50.221Z,94.10
2019-03-18T23:24:27.712Z,93.70
2019-03-18T23:27:05.271Z,93.20
2019-03-18T23:29:42.793Z,93.20
2019-03-18T23:32:20.369Z,92.50
2019-03-18T23:34:57.906Z,92.70
2019-03-18T23:37:35.437Z,92.90
2019-03-18T23:40:12.991Z,93.40
2019-03-18T23:42:50.524Z,93.80
2019-03-18T23:45:29.169Z,94.20
2019-03-18T23:48:06.850Z,94.50
2019-03-18T23:50:44.391Z,95.40
2019-03-18T23:53:21.934Z,95.50
2019-03-18T23:55:59.511Z,95.80
2019-03-18T23:58:40.629Z,96.10
